createdAt,value
2017-06-19T00:02:13.135Z,56.10
2017-06-19T00:04:40.731Z,56.10
2017-06-19T00:07:08.303Z,56.20
2017-06-19T00:09:35.882Z,56.20
2017-06-19T00:12:04.229Z,57.10
2017-06-19T00:14:31.820Z,57.10
2017-06-19T00:17:00.157Z,57.40
2017-06-19T00:19:27.748Z,57.40
2017-06-19T00:21:55.328Z,57.70
2017-06-19T00:24:23.662Z,58.30
2017-06-19T00:26:51.256Z,58.20
2017-06-19T00:29:18.815Z,57.90
2017-06-19T00:31:46.410Z,57.90
2017-06-19T00:34:13.998Z,58.70
2017-06-19T00:36:41.612Z,58.30
2017-06-19T00:39:09.170Z,58.30
2017-06-19T00:41:36.790Z,58.10
2017-06-19T00:44:04.379Z,58.10
2017-06-19T00:46:31.971Z,58.30
2017-06-19T00:48:59.573Z,58.80
2017-06-19T00:51:27.942Z,59.10
2017-06-19T00:53:55.539Z,59.10
2017-06-19T00:56:23.125Z,59.60
2017-06-19T00:58:50.701Z,59.90
2017-06-19T01:01:18.303Z,60.10
2017-06-19T01:03:45.885Z,60.10
2017-06-19T01:06:13.461Z,59.80
2017-06-19T01:08:41.049Z,59.70
2017-06-19T01:11:08.658Z,60.30
2017-06-19T01:13:36.244Z,61.20
2017-06-19T01:16:03.819Z,61.20
2017-06-19T01:18:31.424Z,60.70
2017-06-19T01:20:59.000Z,60.90
2017-06-19T01:23:26.576Z,61.50
2017-06-19T01:25:54.167Z,61.80
2017-06-19T01:28:21.751Z,62.30
2017-06-19T01:30:49.333Z,62.40
2017-06-19T01:33:16.906Z,62.50
2017-06-19T01:35:44.487Z,62.80
2017-06-19T01:38:12.048Z,63.20
2017-06-19T01:40:39.923Z,63.60
2017-06-19T01:43:07.501Z,63.50
2017-06-19T01:45:35.869Z,63.50
2017-06-19T01:48:03.465Z,62.80
2017-06-19T01:50:31.034Z,62.60
2017-06-19T01:52:58.659Z,62.40
2017-06-19T01:55:27.004Z,63.10
2017-06-19T01:57:54.623Z,62.90
2017-06-19T02:00:22.209Z,62.50
2017-06-19T02:02:49.813Z,63.30
2017-06-19T02:05:17.398Z,63.90
2017-06-19T02:07:45.007Z,63.60
2017-06-19T02:10:12.608Z,63.50
2017-06-19T02:12:40.188Z,63.50
2017-06-19T02:15:07.807Z,63.90
2017-06-19T02:17:35.373Z,64.00
2017-06-19T02:20:02.981Z,64.50
2017-06-19T02:22:30.555Z,64.70
2017-06-19T02:24:58.185Z,64.80
2017-06-19T02:27:25.761Z,64.60
2017-06-19T02:29:53.332Z,64.20
2017-06-19T02:32:20.929Z,63.90
2017-06-19T02:34:49.278Z,64.80
2017-06-19T02:37:16.891Z,64.70
2017-06-19T02:39:44.475Z,65.00
2017-06-19T02:42:12.369Z,65.30
2017-06-19T02:44:39.955Z,65.10
2017-06-19T02:47:08.327Z,65.60
2017-06-19T02:49:36.684Z,66.50
2017-06-19T02:52:04.278Z,66.40
2017-06-19T02:54:31.871Z,67.00
2017-06-19T02:56:59.446Z,66.60
2017-06-19T02:59:27.062Z,66.60
2017-06-19T03:01:54.649Z,66.80
2017-06-19T03:04:22.227Z,66.90
2017-06-19T03:06:49.827Z,66.80
2017-06-19T03:09:18.177Z,66.80
2017-06-19T03:11:45.777Z,66.70
2017-06-19T03:14:13.365Z,66.70
2017-06-19T03:16:40.960Z,66.90
2017-06-19T03:19:08.533Z,66.50
2017-06-19T03:21:37.181Z,68.50
2017-06-19T03:24:04.771Z,67.60
2017-06-19T03:26:33.123Z,67.60
2017-06-19T03:29:00.711Z,67.50
2017-06-19T03:31:29.057Z,67.60
2017-06-19T03:33:56.648Z,67.50
2017-06-19T03:36:25.031Z,68.30
2017-06-19T03:38:53.420Z,68.10
2017-06-19T03:41:21.017Z,68.10
2017-06-19T03:43:48.598Z,68.40
2017-06-19T03:46:16.180Z,68.30
2017-06-19T03:48:44.520Z,68.10
2017-06-19T03:51:12.123Z,68.10
2017-06-19T03:53:40.463Z,68.10
2017-06-19T03:56:08.042Z,68.10
2017-06-19T03:58:35.624Z,68.30
2017-06-19T04:01:04.005Z,68.30
2017-06-19T04:03:31.605Z,68.30
2017-06-19T04:05:59.185Z,68.10
2017-06-19T04:08:26.762Z,67.40
2017-06-19T04:10:55.105Z,66.60
2017-06-19T04:13:22.672Z,66.60
2017-06-19T04:15:50.263Z,66.80
2017-06-19T04:18:17.847Z,66.00
2017-06-19T04:20:45.470Z,66.00
2017-06-19T04:23:13.047Z,64.60
2017-06-19T04:25:41.427Z,64.50
2017-06-19T04:28:09.014Z,64.50
2017-06-19T04:30:36.585Z,64.40
2017-06-19T04:33:04.174Z,64.10
2017-06-19T04:35:31.773Z,63.70
2017-06-19T04:37:59.364Z,63.40
2017-06-19T04:40:26.929Z,62.80
2017-06-19T04:42:54.504Z,62.60
2017-06-19T04:45:22.095Z,61.70
2017-06-19T04:47:50.475Z,61.40
2017-06-19T04:50:18.050Z,61.30
2017-06-19T04:52:45.639Z,60.30
2017-06-19T04:55:13.214Z,60.00
2017-06-19T04:57:40.772Z,59.60
2017-06-19T05:00:08.362Z,59.90
2017-06-19T05:02:35.934Z,59.30
2017-06-19T05:05:04.285Z,58.60
2017-06-19T05:07:31.856Z,58.50
2017-06-19T05:09:59.453Z,58.10
2017-06-19T05:12:27.037Z,58.40
2017-06-19T05:14:54.614Z,58.30
2017-06-19T05:17:22.198Z,58.60
2017-06-19T05:19:49.768Z,58.00
2017-06-19T05:22:17.344Z,57.70
2017-06-19T05:24:44.933Z,56.90
2017-06-19T05:27:12.592Z,57.30
2017-06-19T05:29:40.149Z,56.60
2017-06-19T05:32:07.708Z,56.10
2017-06-19T05:34:35.295Z,55.90
2017-06-19T05:37:02.876Z,55.80
2017-06-19T05:39:31.252Z,55.80
2017-06-19T05:41:59.587Z,55.10
2017-06-19T05:44:27.181Z,55.10
2017-06-19T05:46:55.531Z,55.40
2017-06-19T05:49:23.399Z,55.10
2017-06-19T05:51:50.978Z,54.90
2017-06-19T05:54:18.575Z,54.80
2017-06-19T05:56:46.172Z,54.40
2017-06-19T05:59:13.762Z,54.50
2017-06-19T06:01:42.112Z,53.90
2017-06-19T06:04:09.688Z,53.90
2017-06-19T06:06:37.272Z,53.40
2017-06-19T06:09:04.846Z,53.70
2017-06-19T06:11:32.418Z,53.00
2017-06-19T06:14:00.027Z,53.30
2017-06-19T06:16:27.616Z,52.60
2017-06-19T06:18:55.199Z,52.90
2017-06-19T06:21:22.773Z,52.60
2017-06-19T06:23:50.386Z,52.70
2017-06-19T06:26:18.727Z,52.00
2017-06-19T06:28:46.317Z,52.60
2017-06-19T06:31:14.661Z,51.50
2017-06-19T06:33:42.230Z,51.50
2017-06-19T06:36:09.860Z,50.80
2017-06-19T06:38:37.449Z,50.90
2017-06-19T06:41:05.025Z,50.30
2017-06-19T06:43:32.602Z,50.90
2017-06-19T06:46:00.182Z,50.70
2017-06-19T06:48:27.802Z,50.30
2017-06-19T06:50:56.135Z,49.40
2017-06-19T06:53:23.747Z,48.90
2017-06-19T06:55:51.332Z,48.80
2017-06-19T06:58:18.975Z,48.40
2017-06-19T07:00:46.548Z,48.30
2017-06-19T07:03:14.124Z,48.20
2017-06-19T07:05:41.701Z,48.50
2017-06-19T07:08:09.332Z,48.40
2017-06-19T07:10:36.901Z,48.60
2017-06-19T07:13:04.470Z,48.50
2017-06-19T07:15:32.069Z,48.40
2017-06-19T07:18:00.566Z,48.40
2017-06-19T07:20:28.974Z,47.70
2017-06-19T07:22:56.542Z,47.70
2017-06-19T07:25:24.471Z,47.90
2017-06-19T07:27:52.840Z,48.10
2017-06-19T07:30:21.175Z,48.30
2017-06-19T07:32:48.768Z,48.20
2017-06-19T07:35:17.115Z,48.70
2017-06-19T07:37:44.698Z,48.70
2017-06-19T07:40:12.287Z,48.30
2017-06-19T07:42:39.862Z,48.00
2017-06-19T07:45:07.435Z,47.70
2017-06-19T07:47:35.028Z,46.40
2017-06-19T07:50:02.598Z,46.50
2017-06-19T07:52:31.250Z,46.20
2017-06-19T07:54:58.825Z,46.20
2017-06-19T07:57:26.401Z,45.60
2017-06-19T07:59:54.736Z,46.40
2017-06-19T08:02:22.298Z,46.10
2017-06-19T08:04:49.885Z,46.80
2017-06-19T08:07:17.448Z,45.70
2017-06-19T08:09:45.399Z,45.60
2017-06-19T08:12:12.966Z,46.00
2017-06-19T08:14:40.541Z,44.80
2017-06-19T08:17:08.880Z,44.40
2017-06-19T08:19:36.467Z,44.40
2017-06-19T08:22:07.892Z,44.30
2017-06-19T08:24:35.457Z,44.20
2017-06-19T08:27:03.040Z,44.20
2017-06-19T08:29:31.379Z,43.90
2017-06-19T08:31:59.206Z,43.60
2017-06-19T08:34:26.773Z,43.20
2017-06-19T08:36:54.333Z,43.90
2017-06-19T08:39:21.935Z,42.80
2017-06-19T08:41:49.501Z,42.40
2017-06-19T08:44:17.083Z,42.30
2017-06-19T08:46:44.673Z,42.20
2017-06-19T08:49:12.277Z,42.30
2017-06-19T08:51:39.835Z,42.50
2017-06-19T08:54:07.690Z,42.90
2017-06-19T08:56:35.259Z,42.30
2017-06-19T08:59:02.834Z,42.60
2017-06-19T09:01:30.521Z,41.90
2017-06-19T09:03:58.125Z,42.90
2017-06-19T09:06:25.723Z,41.60
2017-06-19T09:08:53.325Z,40.80
2017-06-19T09:11:21.163Z,41.30
2017-06-19T09:13:48.740Z,40.90
2017-06-19T09:16:16.311Z,41.50
2017-06-19T09:18:43.889Z,41.90
2017-06-19T09:21:11.466Z,41.30
2017-06-19T09:23:39.053Z,41.60
2017-06-19T09:26:06.619Z,40.70
2017-06-19T09:28:34.539Z,40.10
2017-06-19T09:31:02.119Z,40.30
2017-06-19T09:33:29.698Z,39.60
2017-06-19T09:35:57.272Z,39.80
2017-06-19T09:38:24.830Z,40.00
2017-06-19T09:40:52.448Z,39.90
2017-06-19T09:43:20.015Z,39.40
2017-06-19T09:45:47.925Z,39.50
2017-06-19T09:48:15.519Z,39.20
2017-06-19T09:50:43.097Z,38.20
2017-06-19T09:53:10.667Z,40.50
2017-06-19T09:55:38.252Z,37.70
2017-06-19T09:58:05.938Z,37.70
2017-06-19T10:00:33.511Z,37.90
2017-06-19T10:03:01.118Z,37.90
2017-06-19T10:05:28.688Z,38.00
2017-06-19T10:07:56.277Z,38.10
2017-06-19T10:10:23.852Z,37.10
2017-06-19T10:12:51.457Z,35.80
2017-06-19T10:15:19.023Z,37.30
2017-06-19T10:17:46.877Z,35.50
2017-06-19T10:20:14.457Z,36.90
2017-06-19T10:22:42.064Z,36.10
2017-06-19T10:25:09.667Z,35.50
2017-06-19T10:27:37.236Z,36.00
2017-06-19T10:30:04.835Z,35.50
2017-06-19T10:32:32.400Z,35.40
2017-06-19T10:34:59.997Z,36.50
2017-06-19T10:37:27.583Z,35.20
2017-06-19T10:39:55.551Z,34.40
2017-06-19T10:42:23.121Z,35.40
2017-06-19T10:44:50.694Z,34.50
2017-06-19T10:47:18.276Z,33.50
2017-06-19T10:49:46.624Z,34.30
2017-06-19T10:52:14.236Z,34.20
2017-06-19T10:54:41.813Z,33.40
2017-06-19T10:57:09.398Z,34.00
2017-06-19T10:59:36.971Z,33.60
2017-06-19T11:02:04.829Z,33.90
2017-06-19T11:04:33.226Z,34.20
2017-06-19T11:07:00.827Z,34.50
2017-06-19T11:09:28.407Z,34.50
2017-06-19T11:11:55.966Z,33.10
2017-06-19T11:14:23.528Z,33.20
2017-06-19T11:16:51.080Z,33.00
2017-06-19T11:19:18.654Z,32.00
2017-06-19T11:21:46.219Z,32.00
2017-06-19T11:24:13.793Z,31.20
2017-06-19T11:26:41.355Z,32.70
2017-06-19T11:29:08.912Z,31.60
2017-06-19T11:31:36.478Z,31.70
2017-06-19T11:34:04.038Z,31.20
2017-06-19T11:36:31.620Z,32.40
2017-06-19T11:38:59.176Z,31.60
2017-06-19T11:41:26.751Z,31.70
2017-06-19T11:43:54.315Z,31.90
2017-06-19T11:46:22.181Z,31.60
2017-06-19T11:48:49.735Z,31.40
2017-06-19T11:51:17.287Z,31.00
2017-06-19T11:53:44.860Z,31.40
2017-06-19T11:56:12.416Z,30.20
2017-06-19T11:58:39.994Z,30.40
2017-06-19T12:01:07.567Z,30.80
2017-06-19T12:03:35.163Z,30.30
2017-06-19T12:06:03.487Z,31.10
2017-06-19T12:08:31.356Z,31.00
2017-06-19T12:10:58.922Z,29.70
2017-06-19T12:13:26.474Z,29.70
2017-06-19T12:15:54.042Z,30.30
2017-06-19T12:18:21.610Z,30.30
2017-06-19T12:20:49.185Z,29.30
2017-06-19T12:23:16.768Z,29.30
2017-06-19T12:25:44.670Z,30.40
2017-06-19T12:28:12.221Z,30.00
2017-06-19T12:30:39.783Z,30.10
2017-06-19T12:33:07.369Z,30.00
2017-06-19T12:35:34.942Z,29.00
2017-06-19T12:38:02.534Z,29.30
2017-06-19T12:40:30.106Z,29.30
2017-06-19T12:42:57.671Z,29.80
2017-06-19T12:45:25.255Z,30.30
2017-06-19T12:47:53.126Z,30.10
2017-06-19T12:50:20.683Z,29.60
2017-06-19T12:52:48.254Z,30.00
2017-06-19T12:55:15.825Z,29.90
2017-06-19T12:57:44.176Z,30.30
2017-06-19T13:00:11.742Z,30.20
2017-06-19T13:02:39.331Z,30.00
2017-06-19T13:05:07.678Z,29.10
2017-06-19T13:07:35.240Z,29.00
2017-06-19T13:10:03.103Z,28.30
2017-06-19T13:12:30.673Z,28.00
2017-06-19T13:14:58.245Z,28.20
2017-06-19T13:17:26.589Z,28.30
2017-06-19T13:19:54.155Z,28.30
2017-06-19T13:22:21.735Z,29.30
2017-06-19T13:24:50.071Z,28.50
2017-06-19T13:27:17.638Z,28.40
2017-06-19T13:29:45.209Z,28.10
2017-06-19T13:32:13.158Z,27.80
2017-06-19T13:34:40.724Z,27.30
2017-06-19T13:37:08.282Z,27.00
2017-06-19T13:39:35.856Z,26.90
2017-06-19T13:42:03.401Z,26.70
2017-06-19T13:44:30.980Z,27.10
2017-06-19T13:46:58.534Z,27.30
2017-06-19T13:49:26.098Z,28.10
2017-06-19T13:51:53.654Z,27.30
2017-06-19T13:54:21.501Z,26.90
2017-06-19T13:56:49.062Z,27.10
2017-06-19T13:59:16.615Z,25.90
2017-06-19T14:01:44.182Z,26.00
2017-06-19T14:04:11.752Z,26.20
2017-06-19T14:06:39.322Z,26.70
2017-06-19T14:09:06.878Z,26.90
2017-06-19T14:11:35.230Z,27.50
2017-06-19T14:14:02.789Z,27.10
2017-06-19T14:16:30.642Z,26.60
2017-06-19T14:18:58.214Z,26.40
2017-06-19T14:21:25.803Z,27.00
2017-06-19T14:23:54.161Z,27.10
2017-06-19T14:26:21.716Z,27.10
2017-06-19T14:28:49.675Z,26.40
2017-06-19T14:31:17.250Z,26.90
2017-06-19T14:33:44.804Z,26.50
2017-06-19T14:36:12.384Z,25.60
2017-06-19T14:38:40.721Z,26.60
2017-06-19T14:41:08.298Z,26.60
2017-06-19T14:43:35.854Z,25.90
2017-06-19T14:46:03.430Z,26.00
2017-06-19T14:48:31.756Z,24.90
2017-06-19T14:50:59.634Z,24.60
2017-06-19T14:53:27.186Z,25.20
2017-06-19T14:55:54.754Z,24.60
2017-06-19T14:58:22.326Z,24.10
2017-06-19T15:00:49.894Z,23.30
2017-06-19T15:03:17.471Z,22.70
2017-06-19T15:05:45.792Z,22.00
2017-06-19T15:08:13.358Z,22.00
2017-06-19T15:10:40.916Z,21.40
2017-06-19T15:13:08.752Z,20.00
2017-06-19T15:15:36.318Z,19.00
2017-06-19T15:18:03.874Z,17.80
2017-06-19T15:20:31.437Z,16.50
2017-06-19T15:22:58.996Z,15.80
2017-06-19T15:25:26.590Z,15.10
2017-06-19T15:27:54.159Z,13.40
2017-06-19T15:30:21.723Z,13.50
2017-06-19T15:32:49.298Z,12.70
2017-06-19T15:35:17.963Z,11.10
2017-06-19T15:37:45.534Z,11.10
2017-06-19T15:40:13.105Z,10.70
2017-06-19T15:42:41.430Z,10.00
2017-06-19T15:45:08.992Z,9.90
2017-06-19T15:47:36.562Z,10.30
2017-06-19T15:50:04.135Z,10.00
2017-06-19T15:52:31.978Z,10.20
2017-06-19T15:54:59.568Z,10.50
2017-06-19T15:57:27.126Z,11.20
2017-06-19T15:59:54.697Z,11.60
2017-06-19T16:02:22.269Z,11.20
2017-06-19T16:04:51.123Z,11.30
2017-06-19T16:07:18.688Z,11.10
2017-06-19T16:09:46.622Z,10.50
2017-06-19T16:12:14.273Z,11.60
2017-06-19T16:14:41.857Z,11.90
2017-06-19T16:17:09.441Z,12.50
2017-06-19T16:19:37.014Z,13.50
2017-06-19T16:22:05.392Z,15.50
2017-06-19T16:24:33.719Z,15.50
2017-06-19T16:27:01.574Z,15.30
2017-06-19T16:29:29.130Z,15.60
2017-06-19T16:31:56.743Z,16.50
2017-06-19T16:34:24.320Z,17.20
2017-06-19T16:36:51.907Z,18.00
2017-06-19T16:39:19.479Z,19.50
2017-06-19T16:41:47.046Z,21.20
2017-06-19T16:44:14.628Z,22.60
2017-06-19T16:46:42.210Z,23.80
2017-06-19T16:49:10.534Z,24.70
2017-06-19T16:51:38.111Z,24.70
2017-06-19T16:54:05.690Z,25.50
2017-06-19T16:56:34.029Z,27.00
2017-06-19T16:59:01.587Z,26.50
2017-06-19T17:01:29.159Z,26.90
2017-06-19T17:03:56.739Z,27.20
2017-06-19T17:06:24.589Z,27.00
2017-06-19T17:08:52.136Z,27.40
2017-06-19T17:11:19.692Z,28.10
2017-06-19T17:13:47.298Z,28.00
2017-06-19T17:16:14.870Z,28.40
2017-06-19T17:18:42.471Z,28.70
2017-06-19T17:21:10.031Z,28.90
2017-06-19T17:23:37.631Z,29.50
2017-06-19T17:26:05.969Z,30.00
2017-06-19T17:28:33.544Z,30.00
2017-06-19T17:31:01.107Z,30.00
2017-06-19T17:33:29.745Z,30.70
2017-06-19T17:35:57.332Z,30.60
2017-06-19T17:38:24.890Z,30.00
2017-06-19T17:40:52.467Z,31.00
2017-06-19T17:43:20.048Z,31.10
2017-06-19T17:45:48.396Z,31.20
2017-06-19T17:48:15.961Z,31.10
2017-06-19T17:50:43.541Z,31.00
2017-06-19T17:53:11.883Z,30.80
2017-06-19T17:55:39.496Z,30.80
2017-06-19T17:58:07.099Z,31.00
2017-06-19T18:00:34.702Z,31.00
2017-06-19T18:03:02.270Z,31.10
2017-06-19T18:05:29.847Z,31.20
2017-06-19T18:07:57.716Z,32.20
2017-06-19T18:10:25.314Z,32.70
2017-06-19T18:12:52.961Z,33.60
2017-06-19T18:15:20.549Z,33.60
2017-06-19T18:17:48.880Z,33.60
2017-06-19T18:20:16.470Z,33.50
2017-06-19T18:22:44.036Z,33.30
2017-06-19T18:25:11.622Z,34.10
2017-06-19T18:27:39.187Z,34.20
2017-06-19T18:30:07.038Z,34.70
2017-06-19T18:32:35.375Z,33.90
2017-06-19T18:35:02.953Z,34.50
2017-06-19T18:37:30.536Z,34.00
2017-06-19T18:39:58.125Z,34.20
2017-06-19T18:42:25.718Z,34.30
2017-06-19T18:44:53.301Z,34.60
2017-06-19T18:47:21.643Z,35.60
2017-06-19T18:49:49.202Z,35.60
2017-06-19T18:52:17.076Z,37.00
2017-06-19T18:54:44.640Z,36.80
2017-06-19T18:57:12.214Z,37.50
2017-06-19T18:59:40.556Z,37.30
2017-06-19T19:02:08.170Z,36.90
2017-06-19T19:04:35.785Z,37.30
2017-06-19T19:07:03.376Z,39.00
2017-06-19T19:09:32.013Z,40.30
2017-06-19T19:11:59.609Z,40.30
2017-06-19T19:14:27.971Z,40.90
2017-06-19T19:16:55.579Z,40.60
2017-06-19T19:19:24.001Z,41.80
2017-06-19T19:21:51.602Z,41.70
2017-06-19T19:24:19.170Z,41.40
2017-06-19T19:26:46.764Z,41.80
2017-06-19T19:29:14.325Z,41.80
2017-06-19T19:31:42.198Z,42.50
2017-06-19T19:34:09.765Z,43.60
2017-06-19T19:36:37.324Z,44.20
2017-06-19T19:39:04.904Z,44.60
2017-06-19T19:41:32.466Z,44.50
2017-06-19T19:44:00.890Z,43.80
2017-06-19T19:46:28.447Z,43.70
2017-06-19T19:48:56.052Z,44.00
2017-06-19T19:51:23.635Z,44.10
2017-06-19T19:53:52.283Z,45.50
2017-06-19T19:56:19.847Z,45.40
2017-06-19T19:58:47.434Z,45.40
2017-06-19T20:01:15.805Z,46.50
2017-06-19T20:03:44.158Z,46.90
2017-06-19T20:06:11.827Z,46.80
2017-06-19T20:08:39.438Z,47.00
2017-06-19T20:11:07.333Z,47.30
2017-06-19T20:13:34.943Z,48.10
2017-06-19T20:16:02.587Z,48.30
2017-06-19T20:18:30.934Z,49.00
2017-06-19T20:20:58.516Z,48.90
2017-06-19T20:23:26.092Z,48.60
2017-06-19T20:25:54.422Z,47.90
2017-06-19T20:28:22.011Z,47.80
2017-06-19T20:30:50.357Z,48.90
2017-06-19T20:33:18.359Z,48.30
2017-06-19T20:35:45.939Z,49.20
2017-06-19T20:38:13.523Z,49.80
2017-06-19T20:40:41.113Z,50.10
2017-06-19T20:43:08.688Z,50.10
2017-06-19T20:45:36.259Z,51.00
2017-06-19T20:48:04.598Z,50.00
2017-06-19T20:50:32.168Z,50.00
2017-06-19T20:52:59.741Z,50.30
2017-06-19T20:55:27.610Z,50.10
2017-06-19T20:57:55.165Z,50.80
2017-06-19T21:00:22.718Z,50.20
2017-06-19T21:02:50.313Z,50.50
2017-06-19T21:05:17.883Z,49.80
2017-06-19T21:07:45.778Z,50.20
2017-06-19T21:10:13.333Z,50.20
2017-06-19T21:12:40.885Z,50.90
2017-06-19T21:15:08.447Z,51.30
2017-06-19T21:17:36.005Z,51.60
2017-06-19T21:20:03.886Z,51.60
2017-06-19T21:22:31.452Z,52.30
2017-06-19T21:24:59.024Z,52.70
2017-06-19T21:27:26.619Z,52.70
2017-06-19T21:29:54.176Z,53.00
2017-06-19T21:32:22.013Z,53.30
2017-06-19T21:34:50.368Z,52.80
2017-06-19T21:37:17.949Z,52.80
2017-06-19T21:39:45.523Z,53.50
2017-06-19T21:42:13.845Z,52.70
2017-06-19T21:44:41.431Z,52.60
2017-06-19T21:47:09.025Z,52.20
2017-06-19T21:49:36.596Z,53.10
2017-06-19T21:52:04.172Z,53.50
2017-06-19T21:54:31.760Z,53.90
2017-06-19T21:56:59.318Z,53.70
2017-06-19T21:59:27.192Z,53.90
2017-06-19T22:01:54.999Z,53.90
2017-06-19T22:04:22.597Z,54.40
2017-06-19T22:06:50.179Z,54.30
2017-06-19T22:09:17.752Z,54.70
2017-06-19T22:11:46.350Z,53.60
2017-06-19T22:14:14.683Z,53.70
2017-06-19T22:16:42.272Z,53.70
2017-06-19T22:19:09.867Z,53.60
2017-06-19T22:21:43.209Z,53.50
2017-06-19T22:24:10.787Z,53.80
2017-06-19T22:26:39.121Z,54.70
2017-06-19T22:29:06.980Z,54.60
2017-06-19T22:31:34.591Z,54.90
2017-06-19T22:34:02.220Z,55.00
2017-06-19T22:36:29.810Z,55.40
2017-06-19T22:38:58.148Z,55.90
2017-06-19T22:41:26.020Z,55.80
2017-06-19T22:43:53.588Z,55.90
2017-06-19T22:46:21.144Z,56.10
2017-06-19T22:48:48.712Z,56.70
2017-06-19T22:51:16.271Z,56.80
2017-06-19T22:53:44.209Z,56.90
2017-06-19T22:56:11.764Z,57.20
2017-06-19T22:58:39.323Z,57.70
2017-06-19T23:01:06.887Z,57.60
2017-06-19T23:03:34.466Z,57.70
2017-06-19T23:06:02.291Z,58.30
2017-06-19T23:08:29.868Z,58.50
2017-06-19T23:10:57.432Z,58.70
2017-06-19T23:13:25.004Z,58.80
2017-06-19T23:15:52.567Z,59.20
2017-06-19T23:18:20.357Z,59.40
2017-06-19T23:20:47.943Z,59.40
2017-06-19T23:23:15.526Z,59.10
2017-06-19T23:25:43.101Z,59.40
2017-06-19T23:28:10.671Z,59.20
2017-06-19T23:30:38.525Z,59.00
2017-06-19T23:33:06.096Z,59.50
2017-06-19T23:35:33.660Z,59.90
2017-06-19T23:38:01.229Z,59.50
2017-06-19T23:40:29.567Z,60.10
2017-06-19T23:42:57.440Z,60.20
2017-06-19T23:45:25.004Z,59.80
2017-06-19T23:47:52.567Z,59.80
2017-06-19T23:50:20.155Z,60.70
2017-06-19T23:52:47.733Z,61.10
2017-06-19T23:55:15.643Z,61.40
2017-06-19T23:57:43.200Z,61.90
